sensor_id;sensor_type;location;lat;lon;timestamp;pressure;altitude;pressure_sealevel;temperature;humidity
57068;BME280;43391;47.448;18.904;2023-05-06T00:02:19;99865.03;;;9.86;100.00
57068;BME280;43391;47.448;18.904;2023-05-06T00:04:45;99866.16;;;9.79;100.00
57068;BME280;43391;47.448;18.904;2023-05-06T00:07:11;99858.53;;;9.76;100.00
57068;BME280;43391;47.448;18.904;2023-05-06T00:09:37;99853.38;;;9.76;100.00
57068;BME280;43391;47.448;18.904;2023-05-06T00:12:02;99862.88;;;9.75;100.00
57068;BME280;43391;47.448;18.904;2023-05-06T00:14:29;99865.19;;;9.81;100.00
57068;BME280;43391;47.448;18.904;2023-05-06T00:16:55;99859.31;;;9.78;100.00
57068;BME280;43391;47.448;18.904;2023-05-06T00:19:20;99857.50;;;9.80;100.00
57068;BME280;43391;47.448;18.904;2023-05-06T00:21:46;99867.34;;;9.72;100.00
57068;BME280;43391;47.448;18.904;2023-05-06T00:24:11;99864.88;;;9.68;100.00
57068;BME280;43391;47.448;18.904;2023-05-06T00:26:36;99872.94;;;9.62;100.00
57068;BME280;43391;47.448;18.904;2023-05-06T00:29:02;99872.28;;;9.57;100.00
57068;BME280;43391;47.448;18.904;2023-05-06T00:31:27;99862.13;;;9.52;100.00
57068;BME280;43391;47.448;18.904;2023-05-06T00:33:52;99855.44;;;9.47;100.00
57068;BME280;43391;47.448;18.904;2023-05-06T00:36:18;99860.81;;;9.42;100.00
57068;BME280;43391;47.448;18.904;2023-05-06T00:38:43;99865.03;;;9.44;100.00
57068;BME280;43391;47.448;18.904;2023-05-06T00:41:08;99865.72;;;9.48;100.00
57068;BME280;43391;47.448;18.904;2023-05-06T00:43:34;99863.19;;;9.47;100.00
57068;BME280;43391;47.448;18.904;2023-05-06T00:45:59;99860.81;;;9.42;100.00
57068;BME280;43391;47.448;18.904;2023-05-06T00:48:25;99854.19;;;9.35;100.00
57068;BME280;43391;47.448;18.904;2023-05-06T00:50:51;99858.53;;;9.34;100.00
57068;BME280;43391;47.448;18.904;2023-05-06T00:53:18;99858.59;;;9.33;100.00
57068;BME280;43391;47.448;18.904;2023-05-06T00:55:43;99860.53;;;9.27;100.00
57068;BME280;43391;47.448;18.904;2023-05-06T00:58:09;99852.75;;;9.27;100.00
57068;BME280;43391;47.448;18.904;2023-05-06T01:00:34;99850.16;;;9.27;100.00
57068;BME280;43391;47.448;18.904;2023-05-06T01:03:00;99849.72;;;9.17;100.00
57068;BME280;43391;47.448;18.904;2023-05-06T01:05:32;99845.31;;;9.20;100.00
57068;BME280;43391;47.448;18.904;2023-05-06T01:08:12;99852.88;;;9.24;100.00
57068;BME280;43391;47.448;18.904;2023-05-06T01:10:49;99846.88;;;9.24;100.00
57068;BME280;43391;47.448;18.904;2023-05-06T01:16:07;99848.16;;;9.13;100.00
57068;BME280;43391;47.448;18.904;2023-05-06T01:18:34;99850.69;;;9.15;100.00
57068;BME280;43391;47.448;18.904;2023-05-06T01:21:04;99847.13;;;9.17;100.00
57068;BME280;43391;47.448;18.904;2023-05-06T01:23:49;99852.09;;;9.22;100.00
57068;BME280;43391;47.448;18.904;2023-05-06T01:26:14;99839.22;;;9.21;100.00
57068;BME280;43391;47.448;18.904;2023-05-06T01:28:39;99844.44;;;9.19;100.00
57068;BME280;43391;47.448;18.904;2023-05-06T01:31:08;99845.25;;;9.21;100.00
57068;BME280;43391;47.448;18.904;2023-05-06T01:33:45;99847.13;;;9.17;100.00
57068;BME280;43391;47.448;18.904;2023-05-06T01:39:16;99833.44;;;9.14;100.00
57068;BME280;43391;47.448;18.904;2023-05-06T01:41:43;99843.22;;;9.07;100.00
57068;BME280;43391;47.448;18.904;2023-05-06T01:44:09;99837.38;;;9.02;100.00
57068;BME280;43391;47.448;18.904;2023-05-06T01:46:35;99836.66;;;8.98;100.00
57068;BME280;43391;47.448;18.904;2023-05-06T01:49:03;99835.75;;;8.99;100.00
57068;BME280;43391;47.448;18.904;2023-05-06T01:51:31;99834.75;;;9.03;100.00
57068;BME280;43391;47.448;18.904;2023-05-06T01:53:56;99834.19;;;8.95;100.00
57068;BME280;43391;47.448;18.904;2023-05-06T01:56:22;99829.97;;;8.93;100.00
57068;BME280;43391;47.448;18.904;2023-05-06T01:58:47;99836.97;;;8.90;100.00
57068;BME280;43391;47.448;18.904;2023-05-06T02:01:12;99830.94;;;8.90;100.00
57068;BME280;43391;47.448;18.904;2023-05-06T02:03:38;99834.50;;;8.87;100.00
57068;BME280;43391;47.448;18.904;2023-05-06T02:06:03;99832.88;;;8.85;100.00
57068;BME280;43391;47.448;18.904;2023-05-06T02:08:28;99838.09;;;8.83;100.00
57068;BME280;43391;47.448;18.904;2023-05-06T02:10:54;99839.00;;;8.82;100.00
57068;BME280;43391;47.448;18.904;2023-05-06T02:13:19;99837.56;;;8.75;100.00
57068;BME280;43391;47.448;18.904;2023-05-06T02:15:44;99842.88;;;8.72;100.00
57068;BME280;43391;47.448;18.904;2023-05-06T02:18:10;99836.13;;;8.68;100.00
57068;BME280;43391;47.448;18.904;2023-05-06T02:20:36;99832.56;;;8.70;100.00
57068;BME280;43391;47.448;18.904;2023-05-06T02:23:01;99836.91;;;8.46;100.00
57068;BME280;43391;47.448;18.904;2023-05-06T02:25:28;99841.50;;;8.37;100.00
57068;BME280;43391;47.448;18.904;2023-05-06T02:27:53;99846.09;;;8.31;100.00
57068;BME280;43391;47.448;18.904;2023-05-06T02:30:19;99840.19;;;8.27;100.00
57068;BME280;43391;47.448;18.904;2023-05-06T02:32:44;99847.81;;;8.30;100.00
57068;BME280;43391;47.448;18.904;2023-05-06T02:35:10;99842.78;;;8.27;100.00
57068;BME280;43391;47.448;18.904;2023-05-06T02:37:35;99840.34;;;8.22;100.00
57068;BME280;43391;47.448;18.904;2023-05-06T02:40:00;99834.63;;;8.14;100.00
57068;BME280;43391;47.448;18.904;2023-05-06T02:42:26;99840.47;;;8.19;100.00
57068;BME280;43391;47.448;18.904;2023-05-06T02:44:51;99849.19;;;8.17;100.00
57068;BME280;43391;47.448;18.904;2023-05-06T02:47:16;99849.13;;;8.18;100.00
57068;BME280;43391;47.448;18.904;2023-05-06T02:49:42;99850.03;;;8.17;100.00
57068;BME280;43391;47.448;18.904;2023-05-06T02:52:07;99848.34;;;8.16;100.00
57068;BME280;43391;47.448;18.904;2023-05-06T02:54:32;99843.91;;;8.20;100.00
57068;BME280;43391;47.448;18.904;2023-05-06T02:56:58;99844.75;;;8.20;100.00
57068;BME280;43391;47.448;18.904;2023-05-06T02:59:23;99840.31;;;8.24;100.00
57068;BME280;43391;47.448;18.904;2023-05-06T03:01:49;99842.88;;;8.00;100.00
57068;BME280;43391;47.448;18.904;2023-05-06T03:04:14;99840.69;;;7.89;100.00
57068;BME280;43391;47.448;18.904;2023-05-06T03:06:39;99842.59;;;7.84;100.00
57068;BME280;43391;47.448;18.904;2023-05-06T03:09:05;99840.81;;;7.84;100.00
57068;BME280;43391;47.448;18.904;2023-05-06T03:11:31;99839.16;;;7.83;100.00
57068;BME280;43391;47.448;18.904;2023-05-06T03:13:56;99846.06;;;7.83;100.00
57068;BME280;43391;47.448;18.904;2023-05-06T03:16:22;99843.59;;;7.80;100.00
57068;BME280;43391;47.448;18.904;2023-05-06T03:18:48;99838.88;;;7.91;100.00
57068;BME280;43391;47.448;18.904;2023-05-06T03:21:13;99840.47;;;7.95;100.00
57068;BME280;43391;47.448;18.904;2023-05-06T03:23:38;99840.63;;;7.91;100.00
57068;BME280;43391;47.448;18.904;2023-05-06T03:26:04;99840.63;;;7.91;100.00
57068;BME280;43391;47.448;18.904;2023-05-06T03:28:29;99838.81;;;7.93;100.00
57068;BME280;43391;47.448;18.904;2023-05-06T03:30:55;99832.59;;;7.98;100.00
57068;BME280;43391;47.448;18.904;2023-05-06T03:33:20;99830.03;;;7.98;100.00
57068;BME280;43391;47.448;18.904;2023-05-06T03:35:45;99831.97;;;7.92;100.00
57068;BME280;43391;47.448;18.904;2023-05-06T03:38:11;99825.00;;;7.94;100.00
57068;BME280;43391;47.448;18.904;2023-05-06T03:40:36;99835.97;;;8.01;100.00
57068;BME280;43391;47.448;18.904;2023-05-06T03:43:02;99839.31;;;8.03;100.00
57068;BME280;43391;47.448;18.904;2023-05-06T03:45:27;99840.19;;;8.03;100.00
57068;BME280;43391;47.448;18.904;2023-05-06T03:47:52;99837.41;;;8.08;100.00
57068;BME280;43391;47.448;18.904;2023-05-06T03:50:18;99839.13;;;8.09;100.00
57068;BME280;43391;47.448;18.904;2023-05-06T03:52:43;99842.44;;;8.13;100.00
57068;BME280;43391;47.448;18.904;2023-05-06T03:55:08;99849.41;;;8.10;100.00
57068;BME280;43391;47.448;18.904;2023-05-06T03:57:34;99849.13;;;8.18;100.00
57068;BME280;43391;47.448;18.904;2023-05-06T03:59:59;99850.81;;;8.19;100.00
57068;BME280;43391;47.448;18.904;2023-05-06T04:02:25;99853.13;;;8.27;100.00
57068;BME280;43391;47.448;18.904;2023-05-06T04:04:50;99857.25;;;8.31;100.00
57068;BME280;43391;47.448;18.904;2023-05-06T04:07:16;99852.75;;;8.36;100.00
57068;BME280;43391;47.448;18.904;2023-05-06T04:09:41;99857.13;;;8.36;100.00
57068;BME280;43391;47.448;18.904;2023-05-06T04:12:06;99851.81;;;8.39;100.00
57068;BME280;43391;47.448;18.904;2023-05-06T04:14:32;99854.06;;;8.48;100.00
57068;BME280;43391;47.448;18.904;2023-05-06T04:16:57;99857.41;;;8.52;100.00
57068;BME280;43391;47.448;18.904;2023-05-06T04:19:23;99854.53;;;8.60;100.00
57068;BME280;43391;47.448;18.904;2023-05-06T04:21:48;99863.09;;;8.62;100.00
57068;BME280;43391;47.448;18.904;2023-05-06T04:24:14;99862.91;;;8.67;100.00
57068;BME280;43391;47.448;18.904;2023-05-06T04:26:40;99855.84;;;8.70;100.00
57068;BME280;43391;47.448;18.904;2023-05-06T04:29:06;99854.94;;;8.71;100.00
57068;BME280;43391;47.448;18.904;2023-05-06T04:31:32;99858.09;;;8.80;100.00
57068;BME280;43391;47.448;18.904;2023-05-06T04:33:59;99855.31;;;8.84;100.00
57068;BME280;43391;47.448;18.904;2023-05-06T04:36:24;99865.31;;;8.94;100.00
57068;BME280;43391;47.448;18.904;2023-05-06T04:38:50;99870.78;;;9.08;100.00
57068;BME280;43391;47.448;18.904;2023-05-06T04:41:17;99859.28;;;9.15;100.00
57068;BME280;43391;47.448;18.904;2023-05-06T04:43:42;99871.84;;;9.25;100.00
57068;BME280;43391;47.448;18.904;2023-05-06T04:46:08;99868.19;;;9.30;100.00
57068;BME280;43391;47.448;18.904;2023-05-06T04:48:35;99871.03;;;9.45;100.00
57068;BME280;43391;47.448;18.904;2023-05-06T04:51:00;99877.00;;;9.47;100.00
57068;BME280;43391;47.448;18.904;2023-05-06T04:53:25;99873.38;;;9.51;100.00
57068;BME280;43391;47.448;18.904;2023-05-06T04:55:51;99880.84;;;9.59;100.00
57068;BME280;43391;47.448;18.904;2023-05-06T04:58:16;99888.22;;;9.68;100.00
57068;BME280;43391;47.448;18.904;2023-05-06T05:00:43;99886.25;;;9.74;100.00
57068;BME280;43391;47.448;18.904;2023-05-06T05:03:08;99891.97;;;9.82;100.00
57068;BME280;43391;47.448;18.904;2023-05-06T05:05:33;99887.44;;;9.87;100.00
57068;BME280;43391;47.448;18.904;2023-05-06T05:07:59;99888.19;;;9.89;100.00
57068;BME280;43391;47.448;18.904;2023-05-06T05:10:24;99884.47;;;9.96;100.00
57068;BME280;43391;47.448;18.904;2023-05-06T05:12:49;99884.88;;;10.06;100.00
57068;BME280;43391;47.448;18.904;2023-05-06T05:15:15;99890.66;;;10.13;100.00
57068;BME280;43391;47.448;18.904;2023-05-06T05:17:40;99891.94;;;10.23;100.00
57068;BME280;43391;47.448;18.904;2023-05-06T05:20:06;99887.31;;;10.30;100.00
57068;BME280;43391;47.448;18.904;2023-05-06T05:22:32;99893.22;;;10.34;100.00
57068;BME280;43391;47.448;18.904;2023-05-06T05:24:57;99888.59;;;10.41;100.00
57068;BME280;43391;47.448;18.904;2023-05-06T05:27:22;99889.38;;;10.62;100.00
57068;BME280;43391;47.448;18.904;2023-05-06T05:29:48;99888.59;;;10.79;100.00
57068;BME280;43391;47.448;18.904;2023-05-06T05:32:13;99882.09;;;11.07;100.00
57068;BME280;43391;47.448;18.904;2023-05-06T05:34:40;99885.88;;;11.19;100.00
57068;BME280;43391;47.448;18.904;2023-05-06T05:37:05;99879.59;;;11.23;100.00
57068;BME280;43391;47.448;18.904;2023-05-06T05:39:31;99879.28;;;11.29;100.00
57068;BME280;43391;47.448;18.904;2023-05-06T05:41:56;99889.25;;;11.39;100.00
57068;BME280;43391;47.448;18.904;2023-05-06T05:44:21;99882.50;;;11.52;100.00
57068;BME280;43391;47.448;18.904;2023-05-06T05:46:47;99874.63;;;11.72;100.00
57068;BME280;43391;47.448;18.904;2023-05-06T05:49:12;99878.22;;;11.87;100.00
57068;BME280;43391;47.448;18.904;2023-05-06T05:51:37;99880.66;;;12.07;100.00
57068;BME280;43391;47.448;18.904;2023-05-06T05:54:03;99887.31;;;12.29;100.00
57068;BME280;43391;47.448;18.904;2023-05-06T05:56:28;99876.75;;;12.48;100.00
57068;BME280;43391;47.448;18.904;2023-05-06T05:58:53;99883.59;;;12.67;100.00
57068;BME280;43391;47.448;18.904;2023-05-06T06:01:19;99881.63;;;12.87;100.00
57068;BME280;43391;47.448;18.904;2023-05-06T06:03:46;99874.69;;;13.18;100.00
57068;BME280;43391;47.448;18.904;2023-05-06T06:06:11;99881.44;;;13.53;100.00
57068;BME280;43391;47.448;18.904;2023-05-06T06:08:36;99881.75;;;13.77;100.00
57068;BME280;43391;47.448;18.904;2023-05-06T06:11:02;99875.53;;;13.94;98.79
57068;BME280;43391;47.448;18.904;2023-05-06T06:13:29;99874.81;;;14.07;99.43
57068;BME280;43391;47.448;18.904;2023-05-06T06:15:57;99882.13;;;14.29;99.66
57068;BME280;43391;47.448;18.904;2023-05-06T06:18:22;99882.59;;;14.51;98.91
57068;BME280;43391;47.448;18.904;2023-05-06T06:20:48;99873.56;;;14.69;99.35
57068;BME280;43391;47.448;18.904;2023-05-06T06:23:14;99877.84;;;14.85;96.75
57068;BME280;43391;47.448;18.904;2023-05-06T06:25:39;99872.69;;;14.98;94.99
57068;BME280;43391;47.448;18.904;2023-05-06T06:28:05;99877.22;;;15.09;92.38
57068;BME280;43391;47.448;18.904;2023-05-06T06:30:30;99869.50;;;15.20;92.35
57068;BME280;43391;47.448;18.904;2023-05-06T06:32:55;99873.00;;;15.34;90.74
57068;BME280;43391;47.448;18.904;2023-05-06T06:35:23;99877.44;;;15.59;90.42
57068;BME280;43391;47.448;18.904;2023-05-06T06:37:48;99877.44;;;15.85;89.57
57068;BME280;43391;47.448;18.904;2023-05-06T06:40:14;99872.66;;;16.05;88.43
57068;BME280;43391;47.448;18.904;2023-05-06T06:42:39;99872.31;;;16.23;86.87
57068;BME280;43391;47.448;18.904;2023-05-06T06:45:07;99873.75;;;16.40;86.21
57068;BME280;43391;47.448;18.904;2023-05-06T06:47:32;99875.50;;;16.52;85.24
57068;BME280;43391;47.448;18.904;2023-05-06T06:49:58;99876.06;;;16.69;84.69
57068;BME280;43391;47.448;18.904;2023-05-06T06:52:23;99874.94;;;16.84;81.95
57068;BME280;43391;47.448;18.904;2023-05-06T06:54:49;99870.06;;;16.80;80.51
57068;BME280;43391;47.448;18.904;2023-05-06T06:57:14;99874.25;;;16.82;81.08
57068;BME280;43391;47.448;18.904;2023-05-06T06:59:39;99878.38;;;16.98;81.36
57068;BME280;43391;47.448;18.904;2023-05-06T07:02:05;99874.97;;;17.09;80.28
57068;BME280;43391;47.448;18.904;2023-05-06T07:04:30;99872.28;;;17.22;79.76
57068;BME280;43391;47.448;18.904;2023-05-06T07:06:56;99869.25;;;17.39;78.70
57068;BME280;43391;47.448;18.904;2023-05-06T07:09:21;99873.94;;;17.59;77.04
57068;BME280;43391;47.448;18.904;2023-05-06T07:11:47;99872.53;;;17.77;76.99
57068;BME280;43391;47.448;18.904;2023-05-06T07:14:12;99881.03;;;17.92;76.09
57068;BME280;43391;47.448;18.904;2023-05-06T07:16:37;99878.28;;;17.94;75.08
57068;BME280;43391;47.448;18.904;2023-05-06T07:19:03;99883.78;;;18.02;75.40
57068;BME280;43391;47.448;18.904;2023-05-06T07:21:28;99890.88;;;18.13;74.14
57068;BME280;43391;47.448;18.904;2023-05-06T07:23:57;99883.56;;;18.28;75.41
57068;BME280;43391;47.448;18.904;2023-05-06T07:26:22;99890.81;;;18.48;74.49
57068;BME280;43391;47.448;18.904;2023-05-06T07:28:48;99883.53;;;18.63;73.90
57068;BME280;43391;47.448;18.904;2023-05-06T07:31:13;99887.56;;;18.67;73.73
57068;BME280;43391;47.448;18.904;2023-05-06T07:33:40;99886.09;;;18.85;73.94
57068;BME280;43391;47.448;18.904;2023-05-06T07:36:06;99887.13;;;18.94;73.80
57068;BME280;43391;47.448;18.904;2023-05-06T07:38:32;99873.97;;;19.06;73.01
57068;BME280;43391;47.448;18.904;2023-05-06T07:40:57;99875.72;;;19.17;74.59
57068;BME280;43391;47.448;18.904;2023-05-06T07:43:23;99874.34;;;19.34;72.69
57068;BME280;43391;47.448;18.904;2023-05-06T07:45:48;99883.72;;;19.48;72.00
57068;BME280;43391;47.448;18.904;2023-05-06T07:48:13;99870.34;;;19.39;71.16
57068;BME280;43391;47.448;18.904;2023-05-06T07:50:39;99882.72;;;19.49;71.39
57068;BME280;43391;47.448;18.904;2023-05-06T07:53:04;99883.22;;;19.64;71.96
57068;BME280;43391;47.448;18.904;2023-05-06T07:55:30;99876.28;;;19.84;71.49
57068;BME280;43391;47.448;18.904;2023-05-06T07:57:55;99878.91;;;20.05;71.44
57068;BME280;43391;47.448;18.904;2023-05-06T08:00:20;99884.13;;;20.27;70.94
57068;BME280;43391;47.448;18.904;2023-05-06T08:02:46;99887.63;;;20.37;69.38
57068;BME280;43391;47.448;18.904;2023-05-06T08:05:13;99884.63;;;20.52;69.66
57068;BME280;43391;47.448;18.904;2023-05-06T08:07:41;99888.06;;;20.62;67.36
57068;BME280;43391;47.448;18.904;2023-05-06T08:10:08;99892.66;;;20.70;67.39
57068;BME280;43391;47.448;18.904;2023-05-06T08:12:34;99898.38;;;20.75;66.88
57068;BME280;43391;47.448;18.904;2023-05-06T08:15:00;99888.38;;;20.59;67.63
57068;BME280;43391;47.448;18.904;2023-05-06T08:17:27;99888.59;;;20.36;67.71
57068;BME280;43391;47.448;18.904;2023-05-06T08:19:52;99889.97;;;20.40;68.34
57068;BME280;43391;47.448;18.904;2023-05-06T08:22:18;99890.16;;;20.58;67.83
57068;BME280;43391;47.448;18.904;2023-05-06T08:24:44;99889.66;;;20.84;68.39
57068;BME280;43391;47.448;18.904;2023-05-06T08:27:10;99892.19;;;21.06;66.74
57068;BME280;43391;47.448;18.904;2023-05-06T08:29:35;99889.56;;;21.26;64.84
57068;BME280;43391;47.448;18.904;2023-05-06T08:32:00;99899.25;;;21.35;64.22
57068;BME280;43391;47.448;18.904;2023-05-06T08:34:26;99893.72;;;21.38;63.86
57068;BME280;43391;47.448;18.904;2023-05-06T08:36:51;99886.19;;;21.43;64.41
57068;BME280;43391;47.448;18.904;2023-05-06T08:39:16;99888.94;;;21.61;63.85
57068;BME280;43391;47.448;18.904;2023-05-06T08:41:46;99888.09;;;21.81;62.74
57068;BME280;43391;47.448;18.904;2023-05-06T08:44:15;99887.31;;;21.98;63.46
57068;BME280;43391;47.448;18.904;2023-05-06T08:46:42;99886.59;;;22.06;62.02
57068;BME280;43391;47.448;18.904;2023-05-06T08:49:08;99891.41;;;22.21;61.49
57068;BME280;43391;47.448;18.904;2023-05-06T08:51:34;99883.03;;;22.25;60.85
57068;BME280;43391;47.448;18.904;2023-05-06T08:54:02;99895.78;;;22.12;60.82
57068;BME280;43391;47.448;18.904;2023-05-06T08:56:32;99888.25;;;22.07;60.91
57068;BME280;43391;47.448;18.904;2023-05-06T08:58:58;99889.56;;;22.03;60.29
57068;BME280;43391;47.448;18.904;2023-05-06T09:01:27;99890.66;;;22.00;60.40
57068;BME280;43391;47.448;18.904;2023-05-06T09:03:54;99888.03;;;22.00;59.73
57068;BME280;43391;47.448;18.904;2023-05-06T09:06:21;99883.19;;;22.24;59.66
57068;BME280;43391;47.448;18.904;2023-05-06T09:08:47;99882.59;;;22.58;59.50
57068;BME280;43391;47.448;18.904;2023-05-06T09:11:26;99891.78;;;22.64;57.18
57068;BME280;43391;47.448;18.904;2023-05-06T09:14:12;99879.59;;;22.89;56.53
57068;BME280;43391;47.448;18.904;2023-05-06T09:16:39;99877.19;;;23.14;54.32
57068;BME280;43391;47.448;18.904;2023-05-06T09:19:05;99876.47;;;23.30;54.98
57068;BME280;43391;47.448;18.904;2023-05-06T09:21:32;99874.28;;;23.44;55.17
57068;BME280;43391;47.448;18.904;2023-05-06T09:23:59;99868.47;;;23.67;54.80
57068;BME280;43391;47.448;18.904;2023-05-06T09:26:26;99873.06;;;23.38;50.47
57068;BME280;43391;47.448;18.904;2023-05-06T09:28:51;99870.75;;;23.35;50.63
57068;BME280;43391;47.448;18.904;2023-05-06T09:31:17;99876.63;;;23.47;51.97
57068;BME280;43391;47.448;18.904;2023-05-06T09:33:43;99868.97;;;23.70;51.72
57068;BME280;43391;47.448;18.904;2023-05-06T09:36:08;99861.34;;;23.67;51.84
57068;BME280;43391;47.448;18.904;2023-05-06T09:38:39;99866.97;;;23.38;50.53
57068;BME280;43391;47.448;18.904;2023-05-06T09:41:06;99859.31;;;23.34;50.70
57068;BME280;43391;47.448;18.904;2023-05-06T09:43:32;99856.97;;;23.31;51.73
57068;BME280;43391;47.448;18.904;2023-05-06T09:45:57;99856.00;;;23.32;52.13
57068;BME280;43391;47.448;18.904;2023-05-06T09:48:28;99844.78;;;23.39;51.57
57068;BME280;43391;47.448;18.904;2023-05-06T09:50:54;99843.88;;;23.48;50.58
57068;BME280;43391;47.448;18.904;2023-05-06T09:53:21;99841.84;;;23.42;52.13
57068;BME280;43391;47.448;18.904;2023-05-06T09:55:48;99841.28;;;22.93;49.66
57068;BME280;43391;47.448;18.904;2023-05-06T09:58:15;99839.63;;;22.74;51.70
57068;BME280;43391;47.448;18.904;2023-05-06T10:00:42;99840.66;;;23.00;50.35
57068;BME280;43391;47.448;18.904;2023-05-06T10:03:08;99842.50;;;22.63;49.43
57068;BME280;43391;47.448;18.904;2023-05-06T10:05:35;99837.84;;;22.47;50.77
57068;BME280;43391;47.448;18.904;2023-05-06T10:08:01;99837.50;;;22.60;51.38
57068;BME280;43391;47.448;18.904;2023-05-06T10:10:28;99839.69;;;22.64;50.18
57068;BME280;43391;47.448;18.904;2023-05-06T10:12:54;99841.19;;;22.67;50.16
57068;BME280;43391;47.448;18.904;2023-05-06T10:15:20;99836.13;;;22.55;49.59
57068;BME280;43391;47.448;18.904;2023-05-06T10:17:47;99827.28;;;22.65;50.39
57068;BME280;43391;47.448;18.904;2023-05-06T10:20:14;99820.78;;;22.77;49.45
57068;BME280;43391;47.448;18.904;2023-05-06T10:27:46;99826.72;;;22.43;48.86
57068;BME280;43391;47.448;18.904;2023-05-06T10:30:14;99813.03;;;22.58;49.27
57068;BME280;43391;47.448;18.904;2023-05-06T10:32:43;99811.44;;;22.65;48.46
57068;BME280;43391;47.448;18.904;2023-05-06T10:35:33;99806.13;;;22.65;48.37
57068;BME280;43391;47.448;18.904;2023-05-06T10:38:02;99801.00;;;22.63;49.66
57068;BME280;43391;47.448;18.904;2023-05-06T10:40:29;99806.50;;;22.70;49.47
57068;BME280;43391;47.448;18.904;2023-05-06T10:43:20;99788.47;;;22.65;49.35
57068;BME280;43391;47.448;18.904;2023-05-06T10:48:27;99792.50;;;22.96;47.83
57068;BME280;43391;47.448;18.904;2023-05-06T10:54:02;99796.81;;;22.79;47.57
57068;BME280;43391;47.448;18.904;2023-05-06T10:56:37;99792.75;;;22.66;47.18
57068;BME280;43391;47.448;18.904;2023-05-06T10:59:06;99790.66;;;22.96;47.75
57068;BME280;43391;47.448;18.904;2023-05-06T11:01:32;99788.50;;;23.37;46.85
57068;BME280;43391;47.448;18.904;2023-05-06T11:04:04;99784.81;;;23.56;45.03
57068;BME280;43391;47.448;18.904;2023-05-06T11:06:48;99788.03;;;23.76;46.86
57068;BME280;43391;47.448;18.904;2023-05-06T11:09:21;99783.28;;;23.88;44.22
57068;BME280;43391;47.448;18.904;2023-05-06T11:14:45;99780.38;;;23.73;43.58
57068;BME280;43391;47.448;18.904;2023-05-06T11:17:30;99775.28;;;23.71;43.53
57068;BME280;43391;47.448;18.904;2023-05-06T11:20:19;99777.97;;;23.88;44.90
57068;BME280;43391;47.448;18.904;2023-05-06T11:22:45;99777.28;;;23.86;44.00
57068;BME280;43391;47.448;18.904;2023-05-06T11:25:10;99776.56;;;23.67;42.76
57068;BME280;43391;47.448;18.904;2023-05-06T11:27:36;99786.88;;;23.44;45.57
57068;BME280;43391;47.448;18.904;2023-05-06T11:30:03;99777.66;;;23.03;43.38
57068;BME280;43391;47.448;18.904;2023-05-06T11:32:29;99782.22;;;22.75;43.95
57068;BME280;43391;47.448;18.904;2023-05-06T11:34:56;99777.53;;;22.50;45.72
57068;BME280;43391;47.448;18.904;2023-05-06T11:37:28;99774.22;;;22.30;47.39
57068;BME280;43391;47.448;18.904;2023-05-06T11:39:54;99780.47;;;22.29;47.72
57068;BME280;43391;47.448;18.904;2023-05-06T11:42:27;99782.63;;;22.15;48.92
57068;BME280;43391;47.448;18.904;2023-05-06T11:44:53;99781.19;;;22.03;48.22
57068;BME280;43391;47.448;18.904;2023-05-06T11:47:22;99784.84;;;21.92;48.85
57068;BME280;43391;47.448;18.904;2023-05-06T11:49:53;99787.81;;;21.89;50.01
57068;BME280;43391;47.448;18.904;2023-05-06T11:52:19;99779.66;;;21.72;51.51
57068;BME280;43391;47.448;18.904;2023-05-06T11:54:45;99781.78;;;21.59;52.31
57068;BME280;43391;47.448;18.904;2023-05-06T11:57:12;99790.13;;;21.54;51.59
57068;BME280;43391;47.448;18.904;2023-05-06T11:59:39;99785.44;;;21.48;52.64
57068;BME280;43391;47.448;18.904;2023-05-06T12:02:06;99783.50;;;21.40;52.48
57068;BME280;43391;47.448;18.904;2023-05-06T12:04:39;99786.28;;;21.38;52.95
57068;BME280;43391;47.448;18.904;2023-05-06T12:07:06;99789.34;;;21.34;53.28
57068;BME280;43391;47.448;18.904;2023-05-06T12:09:33;99789.25;;;21.26;52.92
57068;BME280;43391;47.448;18.904;2023-05-06T12:12:00;99786.75;;;21.14;53.14
57068;BME280;43391;47.448;18.904;2023-05-06T12:14:27;99788.16;;;21.08;52.92
57068;BME280;43391;47.448;18.904;2023-05-06T12:16:52;99787.75;;;21.03;53.29
57068;BME280;43391;47.448;18.904;2023-05-06T12:19:18;99778.19;;;21.02;52.63
57068;BME280;43391;47.448;18.904;2023-05-06T12:21:44;99777.22;;;21.03;52.51
57068;BME280;43391;47.448;18.904;2023-05-06T12:24:10;99777.63;;;21.08;53.23
57068;BME280;43391;47.448;18.904;2023-05-06T12:26:47;99771.91;;;21.23;53.28
57068;BME280;43391;47.448;18.904;2023-05-06T12:29:14;99778.97;;;21.22;52.84
57068;BME280;43391;47.448;18.904;2023-05-06T12:31:42;99771.16;;;21.31;53.92
57068;BME280;43391;47.448;18.904;2023-05-06T12:34:07;99766.69;;;21.41;53.94
57068;BME280;43391;47.448;18.904;2023-05-06T12:36:38;99771.53;;;21.46;53.94
57068;BME280;43391;47.448;18.904;2023-05-06T12:39:04;99773.19;;;21.47;53.37
57068;BME280;43391;47.448;18.904;2023-05-06T12:41:40;99769.31;;;21.51;53.13
57068;BME280;43391;47.448;18.904;2023-05-06T12:44:43;99771.81;;;21.53;52.30
57068;BME280;43391;47.448;18.904;2023-05-06T12:47:21;99775.84;;;21.47;51.79
57068;BME280;43391;47.448;18.904;2023-05-06T12:49:57;99769.31;;;21.41;53.15
57068;BME280;43391;47.448;18.904;2023-05-06T12:52:24;99773.06;;;21.38;52.16
57068;BME280;43391;47.448;18.904;2023-05-06T12:54:50;99770.03;;;21.43;51.84
57068;BME280;43391;47.448;18.904;2023-05-06T12:57:19;99764.22;;;21.40;52.47
57068;BME280;43391;47.448;18.904;2023-05-06T12:59:45;99765.16;;;21.38;51.95
57068;BME280;43391;47.448;18.904;2023-05-06T13:02:11;99761.84;;;21.36;51.96
57068;BME280;43391;47.448;18.904;2023-05-06T13:04:37;99765.88;;;21.41;52.18
57068;BME280;43391;47.448;18.904;2023-05-06T13:07:02;99765.88;;;21.31;50.43
57068;BME280;43391;47.448;18.904;2023-05-06T13:09:27;99766.47;;;21.24;51.51